sensor_id;sensor_type;location;lat;lon;timestamp;P1;durP1;ratioP1;P2;durP2;ratioP2
13989;SDS011;7069;52.528;13.316;2023-03-19T00:01:44;11.23;;;10.10;;
13989;SDS011;7069;52.528;13.316;2023-03-19T00:04:11;14.50;;;11.52;;
13989;SDS011;7069;52.528;13.316;2023-03-19T00:06:37;12.88;;;10.18;;
13989;SDS011;7069;52.528;13.316;2023-03-19T00:09:04;12.82;;;11.43;;
13989;SDS011;7069;52.528;13.316;2023-03-19T00:11:30;14.18;;;10.68;;
13989;SDS011;7069;52.528;13.316;2023-03-19T00:13:59;14.13;;;10.20;;
13989;SDS011;7069;52.528;13.316;2023-03-19T00:16:26;14.93;;;10.40;;
13989;SDS011;7069;52.528;13.316;2023-03-19T00:18:52;11.90;;;10.70;;
13989;SDS011;7069;52.528;13.316;2023-03-19T00:21:20;12.45;;;9.90;;
13989;SDS011;7069;52.528;13.316;2023-03-19T00:23:46;11.35;;;9.85;;
13989;SDS011;7069;52.528;13.316;2023-03-19T00:26:13;12.93;;;10.07;;
13989;SDS011;7069;52.528;13.316;2023-03-19T00:28:39;10.43;;;9.43;;
13989;SDS011;7069;52.528;13.316;2023-03-19T00:31:09;10.77;;;9.30;;
13989;SDS011;7069;52.528;13.316;2023-03-19T00:33:35;14.30;;;10.38;;
13989;SDS011;7069;52.528;13.316;2023-03-19T00:36:02;11.65;;;10.45;;
13989;SDS011;7069;52.528;13.316;2023-03-19T00:38:29;12.47;;;10.00;;
13989;SDS011;7069;52.528;13.316;2023-03-19T00:40:56;13.63;;;10.00;;
13989;SDS011;7069;52.528;13.316;2023-03-19T00:43:22;15.43;;;10.17;;
13989;SDS011;7069;52.528;13.316;2023-03-19T00:45:49;12.95;;;10.45;;
13989;SDS011;7069;52.528;13.316;2023-03-19T00:48:17;11.77;;;9.32;;
13989;SDS011;7069;52.528;13.316;2023-03-19T00:50:44;16.87;;;10.00;;
13989;SDS011;7069;52.528;13.316;2023-03-19T00:53:11;11.97;;;10.13;;
13989;SDS011;7069;52.528;13.316;2023-03-19T00:55:37;11.20;;;10.00;;
13989;SDS011;7069;52.528;13.316;2023-03-19T00:58:04;12.80;;;9.33;;
13989;SDS011;7069;52.528;13.316;2023-03-19T01:00:31;12.02;;;9.23;;
13989;SDS011;7069;52.528;13.316;2023-03-19T01:02:58;10.00;;;8.67;;
13989;SDS011;7069;52.528;13.316;2023-03-19T01:05:27;11.77;;;9.33;;
13989;SDS011;7069;52.528;13.316;2023-03-19T01:07:53;11.17;;;9.37;;
13989;SDS011;7069;52.528;13.316;2023-03-19T01:10:20;10.97;;;9.17;;
13989;SDS011;7069;52.528;13.316;2023-03-19T01:12:47;10.93;;;8.97;;
13989;SDS011;7069;52.528;13.316;2023-03-19T01:15:14;12.23;;;8.57;;
13989;SDS011;7069;52.528;13.316;2023-03-19T01:17:41;11.07;;;9.13;;
13989;SDS011;7069;52.528;13.316;2023-03-19T01:20:08;11.67;;;9.43;;
13989;SDS011;7069;52.528;13.316;2023-03-19T01:22:38;10.67;;;9.00;;
13989;SDS011;7069;52.528;13.316;2023-03-19T01:25:06;9.53;;;8.57;;
13989;SDS011;7069;52.528;13.316;2023-03-19T01:27:32;11.77;;;8.50;;
13989;SDS011;7069;52.528;13.316;2023-03-19T01:29:59;13.60;;;9.60;;
13989;SDS011;7069;52.528;13.316;2023-03-19T01:32:26;10.90;;;9.57;;
13989;SDS011;7069;52.528;13.316;2023-03-19T01:34:53;12.23;;;9.67;;
13989;SDS011;7069;52.528;13.316;2023-03-19T01:37:19;14.07;;;9.87;;
13989;SDS011;7069;52.528;13.316;2023-03-19T01:39:47;10.57;;;9.17;;
13989;SDS011;7069;52.528;13.316;2023-03-19T01:42:13;11.87;;;9.67;;
13989;SDS011;7069;52.528;13.316;2023-03-19T01:44:40;9.63;;;8.43;;
13989;SDS011;7069;52.528;13.316;2023-03-19T01:47:12;11.20;;;8.77;;
13989;SDS011;7069;52.528;13.316;2023-03-19T01:49:40;10.30;;;9.13;;
13989;SDS011;7069;52.528;13.316;2023-03-19T01:52:09;10.67;;;9.60;;
13989;SDS011;7069;52.528;13.316;2023-03-19T01:54:37;10.10;;;9.10;;
13989;SDS011;7069;52.528;13.316;2023-03-19T01:57:06;15.17;;;10.20;;
13989;SDS011;7069;52.528;13.316;2023-03-19T01:59:33;13.37;;;9.30;;
13989;SDS011;7069;52.528;13.316;2023-03-19T02:02:02;11.93;;;9.57;;
13989;SDS011;7069;52.528;13.316;2023-03-19T02:04:30;10.43;;;8.63;;
13989;SDS011;7069;52.528;13.316;2023-03-19T02:06:57;12.50;;;9.60;;
13989;SDS011;7069;52.528;13.316;2023-03-19T02:09:25;12.27;;;10.50;;
13989;SDS011;7069;52.528;13.316;2023-03-19T02:11:52;11.13;;;10.03;;
13989;SDS011;7069;52.528;13.316;2023-03-19T02:14:21;11.40;;;9.90;;
13989;SDS011;7069;52.528;13.316;2023-03-19T02:16:48;14.27;;;10.67;;
13989;SDS011;7069;52.528;13.316;2023-03-19T02:19:15;12.37;;;10.47;;
13989;SDS011;7069;52.528;13.316;2023-03-19T02:21:44;14.73;;;11.27;;
13989;SDS011;7069;52.528;13.316;2023-03-19T02:24:11;13.30;;;10.80;;
13989;SDS011;7069;52.528;13.316;2023-03-19T02:26:42;13.93;;;10.90;;
13989;SDS011;7069;52.528;13.316;2023-03-19T02:29:10;11.23;;;9.77;;
13989;SDS011;7069;52.528;13.316;2023-03-19T02:31:36;16.10;;;10.50;;
13989;SDS011;7069;52.528;13.316;2023-03-19T02:34:03;13.10;;;10.53;;
13989;SDS011;7069;52.528;13.316;2023-03-19T02:36:32;14.83;;;11.00;;
13989;SDS011;7069;52.528;13.316;2023-03-19T02:39:02;12.67;;;11.37;;
13989;SDS011;7069;52.528;13.316;2023-03-19T02:41:29;10.80;;;9.70;;
13989;SDS011;7069;52.528;13.316;2023-03-19T02:43:58;17.13;;;11.63;;
13989;SDS011;7069;52.528;13.316;2023-03-19T02:46:26;14.00;;;11.03;;
13989;SDS011;7069;52.528;13.316;2023-03-19T02:48:52;11.90;;;10.70;;
13989;SDS011;7069;52.528;13.316;2023-03-19T02:51:19;12.17;;;10.83;;
13989;SDS011;7069;52.528;13.316;2023-03-19T02:53:45;12.47;;;10.73;;
13989;SDS011;7069;52.528;13.316;2023-03-19T02:56:12;15.57;;;11.63;;
13989;SDS011;7069;52.528;13.316;2023-03-19T02:58:38;13.23;;;11.83;;
13989;SDS011;7069;52.528;13.316;2023-03-19T03:01:06;13.50;;;11.00;;
13989;SDS011;7069;52.528;13.316;2023-03-19T03:03:33;14.80;;;11.20;;
13989;SDS011;7069;52.528;13.316;2023-03-19T03:05:59;12.93;;;10.40;;
13989;SDS011;7069;52.528;13.316;2023-03-19T03:08:26;18.33;;;12.37;;
13989;SDS011;7069;52.528;13.316;2023-03-19T03:10:53;15.37;;;12.07;;
13989;SDS011;7069;52.528;13.316;2023-03-19T03:13:19;13.77;;;12.07;;
13989;SDS011;7069;52.528;13.316;2023-03-19T03:15:46;14.53;;;11.83;;
13989;SDS011;7069;52.528;13.316;2023-03-19T03:18:14;15.00;;;12.57;;
13989;SDS011;7069;52.528;13.316;2023-03-19T03:20:41;16.23;;;12.47;;
13989;SDS011;7069;52.528;13.316;2023-03-19T03:23:09;15.47;;;12.73;;
13989;SDS011;7069;52.528;13.316;2023-03-19T03:25:36;16.97;;;11.83;;
13989;SDS011;7069;52.528;13.316;2023-03-19T03:28:02;15.17;;;12.57;;
13989;SDS011;7069;52.528;13.316;2023-03-19T03:30:29;18.23;;;14.40;;
13989;SDS011;7069;52.528;13.316;2023-03-19T03:32:55;14.73;;;12.53;;
13989;SDS011;7069;52.528;13.316;2023-03-19T03:35:23;14.27;;;11.40;;
13989;SDS011;7069;52.528;13.316;2023-03-19T03:37:51;14.63;;;12.27;;
13989;SDS011;7069;52.528;13.316;2023-03-19T03:40:18;13.87;;;12.37;;
13989;SDS011;7069;52.528;13.316;2023-03-19T03:42:44;13.83;;;10.87;;
13989;SDS011;7069;52.528;13.316;2023-03-19T03:45:11;11.77;;;10.43;;
13989;SDS011;7069;52.528;13.316;2023-03-19T03:47:38;14.73;;;12.70;;
13989;SDS011;7069;52.528;13.316;2023-03-19T03:50:05;14.93;;;13.40;;
13989;SDS011;7069;52.528;13.316;2023-03-19T03:52:36;13.63;;;11.77;;
13989;SDS011;7069;52.528;13.316;2023-03-19T03:55:03;15.33;;;12.50;;
13989;SDS011;7069;52.528;13.316;2023-03-19T03:57:29;15.77;;;11.33;;
13989;SDS011;7069;52.528;13.316;2023-03-19T03:59:56;14.87;;;12.10;;
13989;SDS011;7069;52.528;13.316;2023-03-19T04:02:23;16.13;;;12.57;;
13989;SDS011;7069;52.528;13.316;2023-03-19T04:04:49;16.73;;;12.83;;
13989;SDS011;7069;52.528;13.316;2023-03-19T04:07:16;16.93;;;12.60;;
13989;SDS011;7069;52.528;13.316;2023-03-19T04:09:44;13.87;;;11.73;;
13989;SDS011;7069;52.528;13.316;2023-03-19T04:12:11;13.47;;;11.80;;
13989;SDS011;7069;52.528;13.316;2023-03-19T04:14:37;14.60;;;12.33;;
13989;SDS011;7069;52.528;13.316;2023-03-19T04:17:04;15.57;;;11.37;;
13989;SDS011;7069;52.528;13.316;2023-03-19T04:19:30;17.67;;;13.27;;
13989;SDS011;7069;52.528;13.316;2023-03-19T04:21:57;16.27;;;12.90;;
13989;SDS011;7069;52.528;13.316;2023-03-19T04:24:24;15.40;;;12.07;;
13989;SDS011;7069;52.528;13.316;2023-03-19T04:26:53;17.13;;;12.67;;
13989;SDS011;7069;52.528;13.316;2023-03-19T04:29:20;12.90;;;11.40;;
13989;SDS011;7069;52.528;13.316;2023-03-19T04:31:47;14.57;;;12.27;;
13989;SDS011;7069;52.528;13.316;2023-03-19T04:34:13;16.93;;;12.97;;
13989;SDS011;7069;52.528;13.316;2023-03-19T04:36:41;13.13;;;11.77;;
13989;SDS011;7069;52.528;13.316;2023-03-19T04:39:08;15.90;;;12.77;;
13989;SDS011;7069;52.528;13.316;2023-03-19T04:41:34;18.73;;;12.83;;
13989;SDS011;7069;52.528;13.316;2023-03-19T04:44:03;19.87;;;12.90;;
13989;SDS011;7069;52.528;13.316;2023-03-19T04:46:29;13.70;;;11.70;;
13989;SDS011;7069;52.528;13.316;2023-03-19T04:48:56;19.73;;;13.20;;
13989;SDS011;7069;52.528;13.316;2023-03-19T04:51:23;13.03;;;11.67;;
13989;SDS011;7069;52.528;13.316;2023-03-19T04:53:50;15.70;;;11.73;;
13989;SDS011;7069;52.528;13.316;2023-03-19T04:56:17;17.13;;;12.53;;
13989;SDS011;7069;52.528;13.316;2023-03-19T04:58:44;16.67;;;13.27;;
13989;SDS011;7069;52.528;13.316;2023-03-19T05:01:12;15.90;;;12.27;;
13989;SDS011;7069;52.528;13.316;2023-03-19T05:03:39;16.10;;;11.67;;
13989;SDS011;7069;52.528;13.316;2023-03-19T05:06:05;12.03;;;10.87;;
13989;SDS011;7069;52.528;13.316;2023-03-19T05:08:32;17.67;;;12.63;;
13989;SDS011;7069;52.528;13.316;2023-03-19T05:10:59;17.70;;;12.13;;
13989;SDS011;7069;52.528;13.316;2023-03-19T05:13:26;14.73;;;11.47;;
13989;SDS011;7069;52.528;13.316;2023-03-19T05:15:53;11.77;;;10.43;;
13989;SDS011;7069;52.528;13.316;2023-03-19T05:18:22;12.57;;;11.27;;
13989;SDS011;7069;52.528;13.316;2023-03-19T05:20:49;13.63;;;11.27;;
13989;SDS011;7069;52.528;13.316;2023-03-19T05:23:15;16.83;;;12.90;;
13989;SDS011;7069;52.528;13.316;2023-03-19T05:25:43;14.00;;;12.00;;
13989;SDS011;7069;52.528;13.316;2023-03-19T05:28:10;15.90;;;12.10;;
13989;SDS011;7069;52.528;13.316;2023-03-19T05:30:37;15.57;;;13.67;;
13989;SDS011;7069;52.528;13.316;2023-03-19T05:33:03;17.03;;;12.23;;
13989;SDS011;7069;52.528;13.316;2023-03-19T05:35:32;15.83;;;10.67;;
13989;SDS011;7069;52.528;13.316;2023-03-19T05:37:58;15.27;;;11.87;;
13989;SDS011;7069;52.528;13.316;2023-03-19T05:40:25;15.73;;;12.23;;
13989;SDS011;7069;52.528;13.316;2023-03-19T05:42:52;16.17;;;13.80;;
13989;SDS011;7069;52.528;13.316;2023-03-19T05:45:18;18.20;;;13.30;;
13989;SDS011;7069;52.528;13.316;2023-03-19T05:47:45;14.37;;;12.93;;
13989;SDS011;7069;52.528;13.316;2023-03-19T05:50:12;15.07;;;13.30;;
13989;SDS011;7069;52.528;13.316;2023-03-19T05:52:40;15.57;;;13.97;;
13989;SDS011;7069;52.528;13.316;2023-03-19T05:55:07;15.30;;;13.30;;
13989;SDS011;7069;52.528;13.316;2023-03-19T05:57:33;17.50;;;14.10;;
13989;SDS011;7069;52.528;13.316;2023-03-19T06:00:00;19.73;;;13.40;;
13989;SDS011;7069;52.528;13.316;2023-03-19T06:02:27;17.83;;;14.07;;
13989;SDS011;7069;52.528;13.316;2023-03-19T06:04:53;16.20;;;13.50;;
13989;SDS011;7069;52.528;13.316;2023-03-19T06:07:20;15.77;;;12.87;;
13989;SDS011;7069;52.528;13.316;2023-03-19T06:09:48;14.70;;;11.87;;
13989;SDS011;7069;52.528;13.316;2023-03-19T06:12:15;12.93;;;11.20;;
13989;SDS011;7069;52.528;13.316;2023-03-19T06:14:42;13.67;;;11.63;;
13989;SDS011;7069;52.528;13.316;2023-03-19T06:17:11;14.13;;;12.63;;
13989;SDS011;7069;52.528;13.316;2023-03-19T06:19:37;17.20;;;13.17;;
13989;SDS011;7069;52.528;13.316;2023-03-19T06:22:04;13.37;;;11.30;;
13989;SDS011;7069;52.528;13.316;2023-03-19T06:24:31;13.43;;;11.17;;
13989;SDS011;7069;52.528;13.316;2023-03-19T06:26:59;13.70;;;11.97;;
13989;SDS011;7069;52.528;13.316;2023-03-19T06:29:26;15.43;;;11.30;;
13989;SDS011;7069;52.528;13.316;2023-03-19T06:31:53;12.57;;;9.83;;
13989;SDS011;7069;52.528;13.316;2023-03-19T06:34:20;13.07;;;10.90;;
13989;SDS011;7069;52.528;13.316;2023-03-19T06:36:46;16.23;;;12.37;;
13989;SDS011;7069;52.528;13.316;2023-03-19T06:39:13;18.57;;;11.80;;
13989;SDS011;7069;52.528;13.316;2023-03-19T06:41:40;17.63;;;11.30;;
13989;SDS011;7069;52.528;13.316;2023-03-19T06:44:08;11.90;;;10.67;;
13989;SDS011;7069;52.528;13.316;2023-03-19T06:46:34;12.73;;;11.37;;
13989;SDS011;7069;52.528;13.316;2023-03-19T06:49:01;14.87;;;11.47;;
13989;SDS011;7069;52.528;13.316;2023-03-19T06:51:28;14.20;;;12.10;;
13989;SDS011;7069;52.528;13.316;2023-03-19T06:53:54;12.23;;;10.47;;
13989;SDS011;7069;52.528;13.316;2023-03-19T06:56:21;10.57;;;9.47;;
13989;SDS011;7069;52.528;13.316;2023-03-19T06:58:48;12.00;;;9.83;;
13989;SDS011;7069;52.528;13.316;2023-03-19T07:01:16;15.53;;;11.67;;
13989;SDS011;7069;52.528;13.316;2023-03-19T07:03:42;16.57;;;13.53;;
13989;SDS011;7069;52.528;13.316;2023-03-19T07:06:09;14.73;;;13.13;;
13989;SDS011;7069;52.528;13.316;2023-03-19T07:08:36;17.73;;;14.47;;
13989;SDS011;7069;52.528;13.316;2023-03-19T07:11:03;16.33;;;13.97;;
13989;SDS011;7069;52.528;13.316;2023-03-19T07:13:30;16.13;;;13.97;;
13989;SDS011;7069;52.528;13.316;2023-03-19T07:15:57;17.63;;;15.80;;
13989;SDS011;7069;52.528;13.316;2023-03-19T07:18:25;18.93;;;16.23;;
13989;SDS011;7069;52.528;13.316;2023-03-19T07:20:52;18.70;;;16.70;;
13989;SDS011;7069;52.528;13.316;2023-03-19T07:23:18;17.70;;;14.77;;
13989;SDS011;7069;52.528;13.316;2023-03-19T07:25:45;18.30;;;15.00;;
13989;SDS011;7069;52.528;13.316;2023-03-19T07:28:12;20.33;;;16.00;;
13989;SDS011;7069;52.528;13.316;2023-03-19T07:30:38;18.77;;;15.77;;
13989;SDS011;7069;52.528;13.316;2023-03-19T07:33:05;17.73;;;14.87;;
13989;SDS011;7069;52.528;13.316;2023-03-19T07:35:33;21.60;;;17.23;;
13989;SDS011;7069;52.528;13.316;2023-03-19T07:38:01;18.67;;;16.77;;
13989;SDS011;7069;52.528;13.316;2023-03-19T07:40:27;18.50;;;15.87;;
13989;SDS011;7069;52.528;13.316;2023-03-19T07:42:54;23.50;;;18.47;;
13989;SDS011;7069;52.528;13.316;2023-03-19T07:45:21;22.63;;;18.43;;
13989;SDS011;7069;52.528;13.316;2023-03-19T07:47:48;21.90;;;18.23;;
13989;SDS011;7069;52.528;13.316;2023-03-19T07:50:15;22.50;;;17.93;;
13989;SDS011;7069;52.528;13.316;2023-03-19T07:52:45;24.30;;;18.50;;
13989;SDS011;7069;52.528;13.316;2023-03-19T07:55:12;21.37;;;19.10;;
13989;SDS011;7069;52.528;13.316;2023-03-19T07:57:39;24.70;;;19.70;;
13989;SDS011;7069;52.528;13.316;2023-03-19T08:00:06;20.43;;;17.77;;
13989;SDS011;7069;52.528;13.316;2023-03-19T08:02:33;19.80;;;16.73;;
13989;SDS011;7069;52.528;13.316;2023-03-19T08:04:59;22.53;;;16.90;;
13989;SDS011;7069;52.528;13.316;2023-03-19T08:07:28;17.67;;;15.83;;
13989;SDS011;7069;52.528;13.316;2023-03-19T08:09:57;19.90;;;17.73;;
13989;SDS011;7069;52.528;13.316;2023-03-19T08:12:29;20.20;;;18.07;;
13989;SDS011;7069;52.528;13.316;2023-03-19T08:14:58;20.87;;;18.67;;
13989;SDS011;7069;52.528;13.316;2023-03-19T08:17:25;23.03;;;20.10;;
13989;SDS011;7069;52.528;13.316;2023-03-19T08:19:51;23.67;;;19.80;;
13989;SDS011;7069;52.528;13.316;2023-03-19T08:22:18;23.17;;;20.70;;
13989;SDS011;7069;52.528;13.316;2023-03-19T08:24:45;23.47;;;19.67;;
13989;SDS011;7069;52.528;13.316;2023-03-19T08:27:13;33.30;;;26.67;;
13989;SDS011;7069;52.528;13.316;2023-03-19T08:29:40;23.67;;;20.87;;
13989;SDS011;7069;52.528;13.316;2023-03-19T08:32:06;23.27;;;20.77;;
13989;SDS011;7069;52.528;13.316;2023-03-19T08:34:36;25.13;;;20.43;;
13989;SDS011;7069;52.528;13.316;2023-03-19T08:37:03;26.03;;;20.80;;
13989;SDS011;7069;52.528;13.316;2023-03-19T08:39:30;24.20;;;21.53;;
13989;SDS011;7069;52.528;13.316;2023-03-19T08:41:56;23.90;;;21.40;;
13989;SDS011;7069;52.528;13.316;2023-03-19T08:44:24;26.60;;;20.90;;
13989;SDS011;7069;52.528;13.316;2023-03-19T08:46:51;22.73;;;19.30;;
13989;SDS011;7069;52.528;13.316;2023-03-19T08:49:18;22.60;;;20.03;;
13989;SDS011;7069;52.528;13.316;2023-03-19T08:51:44;22.53;;;20.13;;
13989;SDS011;7069;52.528;13.316;2023-03-19T08:54:11;22.03;;;19.67;;
13989;SDS011;7069;52.528;13.316;2023-03-19T08:56:38;22.27;;;18.60;;
13989;SDS011;7069;52.528;13.316;2023-03-19T08:59:05;23.40;;;20.87;;
13989;SDS011;7069;52.528;13.316;2023-03-19T09:01:33;22.47;;;20.13;;
13989;SDS011;7069;52.528;13.316;2023-03-19T09:04:00;24.90;;;20.00;;
13989;SDS011;7069;52.528;13.316;2023-03-19T09:06:27;20.47;;;18.33;;
13989;SDS011;7069;52.528;13.316;2023-03-19T09:08:54;24.17;;;17.47;;
13989;SDS011;7069;52.528;13.316;2023-03-19T09:11:20;20.47;;;18.20;;
13989;SDS011;7069;52.528;13.316;2023-03-19T09:13:47;23.83;;;19.23;;
13989;SDS011;7069;52.528;13.316;2023-03-19T09:16:14;25.03;;;20.40;;
13989;SDS011;7069;52.528;13.316;2023-03-19T09:18:42;21.10;;;16.90;;
13989;SDS011;7069;52.528;13.316;2023-03-19T09:21:08;25.07;;;18.43;;
13989;SDS011;7069;52.528;13.316;2023-03-19T09:23:35;20.27;;;17.57;;
13989;SDS011;7069;52.528;13.316;2023-03-19T09:26:02;19.07;;;16.73;;
13989;SDS011;7069;52.528;13.316;2023-03-19T09:28:28;19.63;;;16.83;;
13989;SDS011;7069;52.528;13.316;2023-03-19T09:30:55;21.17;;;18.23;;
13989;SDS011;7069;52.528;13.316;2023-03-19T09:33:21;17.73;;;15.67;;
13989;SDS011;7069;52.528;13.316;2023-03-19T09:35:50;19.87;;;16.43;;
13989;SDS011;7069;52.528;13.316;2023-03-19T09:38:17;19.97;;;17.17;;
13989;SDS011;7069;52.528;13.316;2023-03-19T09:40:45;22.27;;;16.63;;
13989;SDS011;7069;52.528;13.316;2023-03-19T09:43:17;17.67;;;15.83;;
13989;SDS011;7069;52.528;13.316;2023-03-19T09:45:45;18.37;;;16.60;;
13989;SDS011;7069;52.528;13.316;2023-03-19T09:48:13;22.13;;;17.87;;
13989;SDS011;7069;52.528;13.316;2023-03-19T09:50:42;20.07;;;16.43;;
13989;SDS011;7069;52.528;13.316;2023-03-19T09:53:12;22.43;;;17.10;;
13989;SDS011;7069;52.528;13.316;2023-03-19T09:55:42;18.07;;;16.07;;
13989;SDS011;7069;52.528;13.316;2023-03-19T09:58:11;20.27;;;17.20;;
13989;SDS011;7069;52.528;13.316;2023-03-19T10:00:39;20.60;;;17.77;;
13989;SDS011;7069;52.528;13.316;2023-03-19T10:03:10;21.60;;;16.90;;
13989;SDS011;7069;52.528;13.316;2023-03-19T10:05:41;17.33;;;14.83;;
13989;SDS011;7069;52.528;13.316;2023-03-19T10:08:19;16.07;;;14.37;;
13989;SDS011;7069;52.528;13.316;2023-03-19T10:10:54;16.57;;;14.27;;
13989;SDS011;7069;52.528;13.316;2023-03-19T10:13:32;15.93;;;14.40;;
13989;SDS011;7069;52.528;13.316;2023-03-19T10:16:03;16.30;;;14.50;;
13989;SDS011;7069;52.528;13.316;2023-03-19T10:18:31;14.83;;;13.30;;
13989;SDS011;7069;52.528;13.316;2023-03-19T10:20:59;15.60;;;12.87;;
13989;SDS011;7069;52.528;13.316;2023-03-19T10:23:31;12.93;;;11.47;;
13989;SDS011;7069;52.528;13.316;2023-03-19T10:26:01;14.37;;;11.63;;
13989;SDS011;7069;52.528;13.316;2023-03-19T10:28:28;14.40;;;12.90;;
13989;SDS011;7069;52.528;13.316;2023-03-19T10:30:56;15.40;;;13.80;;
13989;SDS011;7069;52.528;13.316;2023-03-19T10:33:29;13.93;;;12.27;;
13989;SDS011;7069;52.528;13.316;2023-03-19T10:35:59;15.17;;;12.30;;
13989;SDS011;7069;52.528;13.316;2023-03-19T10:38:27;15.67;;;14.10;;
13989;SDS011;7069;52.528;13.316;2023-03-19T10:43:41;15.53;;;13.87;;
13989;SDS011;7069;52.528;13.316;2023-03-19T10:46:10;14.93;;;13.00;;
13989;SDS011;7069;52.528;13.316;2023-03-19T10:48:39;12.32;;;11.13;;
13989;SDS011;7069;52.528;13.316;2023-03-19T10:51:09;14.67;;;13.17;;
13989;SDS011;7069;52.528;13.316;2023-03-19T10:53:38;15.70;;;13.03;;
13989;SDS011;7069;52.528;13.316;2023-03-19T10:56:06;14.23;;;11.90;;
13989;SDS011;7069;52.528;13.316;2023-03-19T10:58:33;14.68;;;11.80;;
13989;SDS011;7069;52.528;13.316;2023-03-19T11:01:03;12.43;;;11.18;;
13989;SDS011;7069;52.528;13.316;2023-03-19T11:03:31;13.52;;;10.32;;
13989;SDS011;7069;52.528;13.316;2023-03-19T11:06:15;10.73;;;9.40;;
13989;SDS011;7069;52.528;13.316;2023-03-19T11:08:42;13.10;;;11.20;;
13989;SDS011;7069;52.528;13.316;2023-03-19T11:11:21;11.65;;;10.50;;
13989;SDS011;7069;52.528;13.316;2023-03-19T11:13:48;11.70;;;10.60;;
13989;SDS011;7069;52.528;13.316;2023-03-19T11:16:16;11.90;;;10.70;;
13989;SDS011;7069;52.528;13.316;2023-03-19T11:18:43;13.63;;;12.20;;
13989;SDS011;7069;52.528;13.316;2023-03-19T11:21:20;11.68;;;9.93;;
13989;SDS011;7069;52.528;13.316;2023-03-19T11:23:50;11.15;;;10.10;;
13989;SDS011;7069;52.528;13.316;2023-03-19T11:26:17;12.15;;;9.65;;
13989;SDS011;7069;52.528;13.316;2023-03-19T11:28:44;10.38;;;9.38;;
13989;SDS011;7069;52.528;13.316;2023-03-19T11:31:18;11.32;;;10.18;;
13989;SDS011;7069;52.528;13.316;2023-03-19T11:33:47;9.90;;;8.90;;
13989;SDS011;7069;52.528;13.316;2023-03-19T11:36:16;10.05;;;8.77;;
13989;SDS011;7069;52.528;13.316;2023-03-19T11:38:49;9.50;;;8.57;;
13989;SDS011;7069;52.528;13.316;2023-03-19T11:41:21;9.47;;;8.60;;
13989;SDS011;7069;52.528;13.316;2023-03-19T11:43:53;8.30;;;7.50;;
13989;SDS011;7069;52.528;13.316;2023-03-19T11:46:35;10.30;;;8.75;;
13989;SDS011;7069;52.528;13.316;2023-03-19T11:49:07;9.38;;;8.48;;
13989;SDS011;7069;52.528;13.316;2023-03-19T11:51:37;10.10;;;8.05;;
13989;SDS011;7069;52.528;13.316;2023-03-19T11:54:09;9.27;;;8.38;;
13989;SDS011;7069;52.528;13.316;2023-03-19T11:56:39;8.10;;;7.30;;
13989;SDS011;7069;52.528;13.316;2023-03-19T12:02:04;7.93;;;7.15;;
13989;SDS011;7069;52.528;13.316;2023-03-19T12:07:22;8.32;;;7.45;;
13989;SDS011;7069;52.528;13.316;2023-03-19T12:09:54;8.75;;;7.85;;
13989;SDS011;7069;52.528;13.316;2023-03-19T12:12:24;7.32;;;6.60;;
13989;SDS011;7069;52.528;13.316;2023-03-19T12:14:55;7.90;;;6.53;;
13989;SDS011;7069;52.528;13.316;2023-03-19T12:17:28;7.05;;;6.32;;
13989;SDS011;7069;52.528;13.316;2023-03-19T12:20:02;6.43;;;5.78;;
13989;SDS011;7069;52.528;13.316;2023-03-19T12:22:35;7.32;;;6.38;;
13989;SDS011;7069;52.528;13.316;2023-03-19T12:25:14;6.75;;;5.85;;
13989;SDS011;7069;52.528;13.316;2023-03-19T12:27:46;6.18;;;5.60;;
13989;SDS011;7069;52.528;13.316;2023-03-19T12:30:15;8.18;;;7.38;;
13989;SDS011;7069;52.528;13.316;2023-03-19T12:32:50;6.55;;;5.95;;
13989;SDS011;7069;52.528;13.316;2023-03-19T12:35:23;7.25;;;6.38;;
13989;SDS011;7069;52.528;13.316;2023-03-19T12:37:52;7.25;;;6.15;;
13989;SDS011;7069;52.528;13.316;2023-03-19T12:40:24;8.10;;;7.40;;
13989;SDS011;7069;52.528;13.316;2023-03-19T12:42:51;7.15;;;6.43;;
13989;SDS011;7069;52.528;13.316;2023-03-19T12:45:25;8.38;;;7.57;;
13989;SDS011;7069;52.528;13.316;2023-03-19T12:47:56;8.32;;;7.47;;
13989;SDS011;7069;52.528;13.316;2023-03-19T12:50:23;9.25;;;8.32;;
13989;SDS011;7069;52.528;13.316;2023-03-19T12:52:52;10.85;;;7.53;;
13989;SDS011;7069;52.528;13.316;2023-03-19T12:55:21;7.60;;;6.80;;
13989;SDS011;7069;52.528;13.316;2023-03-19T12:57:48;12.63;;;7.53;;
13989;SDS011;7069;52.528;13.316;2023-03-19T13:00:18;8.25;;;6.93;;
13989;SDS011;7069;52.528;13.316;2023-03-19T13:02:47;8.00;;;7.28;;
13989;SDS011;7069;52.528;13.316;2023-03-19T13:05:20;9.73;;;7.65;;
13989;SDS011;7069;52.528;13.316;2023-03-19T13:07:51;9.38;;;7.78;;
13989;SDS011;7069;52.528;13.316;2023-03-19T13:10:21;7.75;;;6.95;;
13989;SDS011;7069;52.528;13.316;2023-03-19T13:12:48;7.45;;;6.75;;
13989;SDS011;7069;52.528;13.316;2023-03-19T13:15:15;11.23;;;7.22;;
13989;SDS011;7069;52.528;13.316;2023-03-19T13:17:47;9.55;;;6.70;;
13989;SDS011;7069;52.528;13.316;2023-03-19T13:20:30;9.35;;;7.85;;
13989;SDS011;7069;52.528;13.316;2023-03-19T13:23:00;9.40;;;7.88;;
13989;SDS011;7069;52.528;13.316;2023-03-19T13:25:30;7.63;;;6.90;;
13989;SDS011;7069;52.528;13.316;2023-03-19T13:27:58;8.27;;;7.07;;
13989;SDS011;7069;52.528;13.316;2023-03-19T13:30:24;9.25;;;7.38;;
13989;SDS011;7069;52.528;13.316;2023-03-19T13:32:52;7.35;;;6.60;;
13989;SDS011;7069;52.528;13.316;2023-03-19T13:35:30;7.40;;;6.70;;
13989;SDS011;7069;52.528;13.316;2023-03-19T13:37:59;8.68;;;7.65;;
13989;SDS011;7069;52.528;13.316;2023-03-19T13:40:40;7.53;;;6.82;;
13989;SDS011;7069;52.528;13.316;2023-03-19T13:43:19;9.43;;;8.45;;
13989;SDS011;7069;52.528;13.316;2023-03-19T13:45:49;11.02;;;7.70;;
13989;SDS011;7069;52.528;13.316;2023-03-19T13:48:32;7.85;;;7.05;;
13989;SDS011;7069;52.528;13.316;2023-03-19T13:51:02;6.75;;;5.97;;
13989;SDS011;7069;52.528;13.316;2023-03-19T13:53:36;7.65;;;6.82;;
13989;SDS011;7069;52.528;13.316;2023-03-19T13:56:04;8.40;;;7.55;;
13989;SDS011;7069;52.528;13.316;2023-03-19T13:58:42;6.20;;;5.70;;
13989;SDS011;7069;52.528;13.316;2023-03-19T14:01:35;6.30;;;5.70;;
13989;SDS011;7069;52.528;13.316;2023-03-19T14:04:02;9.10;;;7.68;;
13989;SDS011;7069;52.528;13.316;2023-03-19T14:06:31;6.45;;;5.85;;
13989;SDS011;7069;52.528;13.316;2023-03-19T14:08:59;6.60;;;5.80;;
13989;SDS011;7069;52.528;13.316;2023-03-19T14:11:27;7.30;;;5.97;;
13989;SDS011;7069;52.528;13.316;2023-03-19T14:13:55;6.57;;;5.97;;
13989;SDS011;7069;52.528;13.316;2023-03-19T14:16:28;6.82;;;6.13;;
13989;SDS011;7069;52.528;13.316;2023-03-19T14:18:55;9.38;;;7.00;;
13989;SDS011;7069;52.528;13.316;2023-03-19T14:21:34;9.88;;;7.57;;
13989;SDS011;7069;52.528;13.316;2023-03-19T14:24:26;6.80;;;6.20;;
13989;SDS011;7069;52.528;13.316;2023-03-19T14:26:53;8.15;;;6.03;;
13989;SDS011;7069;52.528;13.316;2023-03-19T14:29:19;7.65;;;6.85;;
13989;SDS011;7069;52.528;13.316;2023-03-19T14:31:49;9.48;;;7.55;;
13989;SDS011;7069;52.528;13.316;2023-03-19T14:34:18;7.60;;;6.82;;
13989;SDS011;7069;52.528;13.316;2023-03-19T14:36:48;8.73;;;7.72;;
13989;SDS011;7069;52.528;13.316;2023-03-19T14:39:17;9.73;;;6.78;;
13989;SDS011;7069;52.528;13.316;2023-03-19T14:41:45;9.00;;;6.22;;
13989;SDS011;7069;52.528;13.316;2023-03-19T14:47:02;6.43;;;5.82;;